EPGDENCN

Guest
Details From EPGD - LECH WALESA
To ENCN - Kristiansand lufthavn Kjevik
Flight Number -
Tags decoded
Created
Modified
Stats Distance 430 nm / 797 km
Max Altitude 0 ft / 0 m
Waypoints 5
Social Downloads 1
Likes 0
Share VATSIM

Download

Looking for another format? Having issues loading an existing format? Contact us
Advertisement - Login to hide

Notes

Requested: EPGD SONUX T673 DEVEL L621 AMSEV ENCN Unmatched points: T673 L621

Route

EPGD SONUX DEVEL AMSEV ENCN

ID Type Via Altitude Latitude Longitude Leg Dist Tot Dist Heading (true) Name
O EPGD APT - 0 ft / 0 m 54.37617˚ 18.47188˚ - 0 nm - LECH WALESA
SONUX FIX - 0 ft / 0 m 54.34333˚ 17.41806˚ 36 nm 36 nm 267° / 267° -
DEVEL FIX - 0 ft / 0 m 54.73083˚ 15.74806˚ 62 nm 99 nm 292° / 291° -
AMSEV FIX - 0 ft / 0 m 57.67528˚ 8.80222˚ 291 nm 391 nm 310° / 304° -
O ENCN APT - 0 ft / 0 m 58.20419˚ 8.08534˚ 39 nm 430 nm 325° / 324° Kristiansand lufthavn Kjevik

Altitude Profile

Advertisement - Login to hide

Weather


0- 5 10 15 20 25 30 35+ Temperature / ° C

Clouds and Precipitation
Forecast for 2017-12-12 00:00 UTC. Updated 2 hours ago

Ground ~20,000 ft ~40,000 ft Winds

EPGD

Details ICAO EPGD (GDN)
Name LECH WALESA
Region Poland
Timezone Europe/Warsaw (UTC+1.0)
Stats Elevation 489 ft / 149 m (AMSL)
Location 54.376167° 18.471884°
Runways 1
Magnetic Variation 5.449° E

METAR

EPGD 120030Z 17007KT 140V200 CAVOK 03/02 Q0988 R11/290095

Decode

TAF

TAF TAF EPGD 112330Z 1200/1224 18010KT 9999 BKN030 PROB40 1200/1206 3000 -RADZ BR BKN005 BECMG 1206/1208 24015KT TEMPO 1208/1218 24020G35KT PROB40 1208/1220 4000 -RA BR BKN008

Decode

Departure Runways

ID Width Length Bearing (true) Bearing (mag) Surface Threshold Offset Overrun Length
11 148 ft / 45 m 9,158 ft / 2,791 m 112.96° 107.51° Asphalt 0 ft / 0 m 0 ft / 0 m
29 148 ft / 45 m 9,158 ft / 2,791 m 293.00° 287.55° Asphalt 0 ft / 0 m 0 ft / 0 m

ENCN

Details ICAO ENCN (KRS)
Name Kristiansand lufthavn Kjevik
Region Norway
Timezone Europe/Oslo (UTC+1.0)
Stats Elevation 57 ft / 17 m (AMSL)
Location 58.204191° 8.085337°
Runways 1
Magnetic Variation 2.111° E

METAR

ENCN 120020Z AUTO 01008KT 330V040 9999 FEW110/// SCT160/// BKN180/// M02/M06 Q0994

Decode

TAF

Not found

Destination Runways

ID Width Length Bearing (true) Bearing (mag) Surface Threshold Offset Overrun Length
04 148 ft / 45 m 6,667 ft / 2,032 m 34.94° 32.83° Asphalt 217 ft / 66 m 131 ft / 40 m
22 148 ft / 45 m 6,667 ft / 2,032 m 214.96° 212.85° Asphalt 325 ft / 99 m 312 ft / 95 m

Approach Navaids

Runway Type Ident Frequency Range Bearing (true) Bearing (mag) Slope Elevation
04 Localiser CN 110.30 MHz 18 nm / 33 km 34.96° 32.85° - 57 ft / 17 m (AMSL)
04 Glidescope CN 110.30 MHz 10 nm / 19 km 34.95° 32.84° 3.40° 57 ft / 17 m (AMSL)
22 Localiser KJ 110.90 MHz 18 nm / 33 km 214.94° 212.83° - 57 ft / 17 m (AMSL)
22 Glidescope KJ 110.90 MHz 10 nm / 19 km 214.95° 212.84° 3.60° 57 ft / 17 m (AMSL)

Popular Alternatives